Time;durP1;ratioP1;P1;durP2;ratioP2;P2;SDS_P1;SDS_P2;PMS_P1;PMS_P2;Temp;Humidity;BMP_temperature;BMP_pressure;BME280_temperature;BME280_humidity;BME280_pressure;Samples;Min_cycle;Max_cycle;Signal;HPM_P1;HPM_P2
2022/11/08 00:02:29;;;;;;;3.92;1.70;;;11.00;99.90;;;;;;5006181;28;20497;-48
2022/11/08 00:04:55;;;;;;;2.55;1.20;;;11.00;99.90;;;;;;4989890;28;20030;-48
2022/11/08 00:15:37;;;;;;;5.60;1.30;;;11.00;99.90;;;;;;5006842;28;20516;-53
2022/11/08 00:18:04;;;;;;;2.88;1.00;;;10.90;99.90;;;;;;4987586;28;20315;-50
2022/11/08 00:20:29;;;;;;;4.90;1.50;;;10.90;99.90;;;;;;4986406;28;20533;-50
2022/11/08 00:22:55;;;;;;;3.42;1.65;;;10.90;99.90;;;;;;5007615;28;20109;-51
2022/11/08 00:25:20;;;;;;;3.40;1.38;;;10.90;99.90;;;;;;4987357;28;20069;-49
2022/11/08 00:27:46;;;;;;;1.88;1.02;;;10.80;99.90;;;;;;5001290;28;20449;-48
2022/11/08 00:30:11;;;;;;;4.78;1.50;;;10.80;99.90;;;;;;4987225;28;20032;-50
2022/11/08 00:32:37;;;;;;;3.90;1.27;;;10.80;99.90;;;;;;5007416;28;20026;-51
2022/11/08 00:35:02;;;;;;;3.22;1.40;;;10.70;99.90;;;;;;4987078;28;20042;-48
2022/11/08 00:37:28;;;;;;;3.92;1.35;;;10.70;99.90;;;;;;5023246;28;20447;-48
2022/11/08 00:39:53;;;;;;;3.17;1.30;;;10.60;99.90;;;;;;4987060;28;20061;-47
2022/11/08 00:42:19;;;;;;;5.72;1.30;;;10.60;99.90;;;;;;5008987;28;20077;-47
2022/11/08 00:44:44;;;;;;;3.33;1.05;;;10.60;99.90;;;;;;4990989;28;20114;-48
2022/11/08 00:47:10;;;;;;;1.65;1.10;;;10.50;99.90;;;;;;5010925;28;20026;-49
2022/11/08 00:49:35;;;;;;;4.68;1.40;;;10.50;99.90;;;;;;4990873;28;20084;-47
2022/11/08 00:52:01;;;;;;;4.88;1.70;;;10.40;99.90;;;;;;5010847;28;20026;-47
2022/11/08 00:54:26;;;;;;;2.38;1.20;;;10.30;99.90;;;;;;5000670;28;20490;-46
2022/11/08 00:56:52;;;;;;;5.32;1.70;;;10.30;99.90;;;;;;4992484;28;20022;-51
2022/11/08 00:59:18;;;;;;;4.20;1.90;;;10.20;99.90;;;;;;5008463;28;20497;-48
2022/11/08 01:01:45;;;;;;;3.53;1.45;;;10.20;99.90;;;;;;4992205;28;20038;-46
2022/11/08 01:04:12;;;;;;;2.75;1.30;;;10.10;99.90;;;;;;5009044;28;20026;-48
2022/11/08 01:06:38;;;;;;;4.43;1.63;;;10.10;99.90;;;;;;4991998;28;20560;-48
2022/11/08 01:09:04;;;;;;;2.47;1.15;;;10.00;99.90;;;;;;5008661;28;20034;-47
2022/11/08 01:11:30;;;;;;;7.32;1.45;;;10.00;99.90;;;;;;5009922;28;20377;-47
2022/11/08 01:13:58;;;;;;;5.40;1.60;;;9.90;99.90;;;;;;4996123;28;20029;-48
2022/11/08 01:16:27;;;;;;;3.08;1.50;;;9.90;99.90;;;;;;5011148;28;20048;-51
2022/11/08 01:18:54;;;;;;;3.05;1.50;;;9.90;99.90;;;;;;4995028;28;20068;-49
2022/11/08 01:21:20;;;;;;;2.45;1.17;;;9.80;99.90;;;;;;5010925;28;20038;-50
2022/11/08 01:23:46;;;;;;;7.20;1.55;;;9.80;99.90;;;;;;4994655;28;20157;-49
2022/11/08 01:26:14;;;;;;;3.92;1.25;;;9.80;99.90;;;;;;5009225;28;20050;-51
2022/11/08 01:28:40;;;;;;;4.57;1.20;;;9.70;99.90;;;;;;4987958;28;20050;-54
2022/11/08 01:31:15;;;;;;;2.90;1.50;;;9.60;99.90;;;;;;5009656;28;20281;-50
2022/11/08 01:33:41;;;;;;;3.93;1.70;;;9.60;99.90;;;;;;4977978;28;20119;-49
2022/11/08 01:36:12;;;;;;;5.15;1.25;;;9.60;99.90;;;;;;5009080;28;20038;-52
2022/11/08 01:38:39;;;;;;;8.07;1.90;;;9.60;99.90;;;;;;4996165;28;20528;-51
2022/11/08 01:41:05;;;;;;;3.10;1.40;;;9.60;99.90;;;;;;5008844;28;20449;-51
2022/11/08 01:43:35;;;;;;;4.25;1.50;;;9.60;99.90;;;;;;4991672;28;20034;-51
2022/11/08 01:46:33;;;;;;;6.00;1.83;;;9.60;99.90;;;;;;4984706;28;20029;-51
2022/11/08 01:48:59;;;;;;;4.85;1.60;;;9.50;99.90;;;;;;4991433;28;20506;-52
2022/11/08 01:51:29;;;;;;;3.88;1.42;;;9.50;99.90;;;;;;5007870;28;20091;-50
2022/11/08 01:53:57;;;;;;;2.47;1.60;;;9.50;99.90;;;;;;5010010;28;20065;-53
2022/11/08 01:56:23;;;;;;;3.55;1.80;;;9.50;99.90;;;;;;4995713;28;20112;-53
2022/11/08 01:58:51;;;;;;;3.90;1.60;;;9.50;99.90;;;;;;5010373;28;20129;-51
2022/11/08 02:01:17;;;;;;;5.05;1.50;;;9.60;99.90;;;;;;4994677;28;20092;-51
2022/11/08 02:03:42;;;;;;;4.55;1.52;;;9.50;99.90;;;;;;5010358;28;20415;-52
2022/11/08 02:06:09;;;;;;;3.42;1.65;;;9.50;99.90;;;;;;4993789;28;20038;-50
2022/11/08 02:11:57;;;;;;;3.97;1.85;;;9.50;99.90;;;;;;4991702;28;20033;-54
2022/11/08 02:14:22;;;;;;;6.20;1.67;;;9.50;99.90;;;;;;4991142;28;20039;-50
2022/11/08 02:20:10;;;;;;;3.35;1.55;;;9.50;99.90;;;;;;4986887;28;20092;-52
2022/11/08 02:22:45;;;;;;;6.18;1.70;;;9.40;99.90;;;;;;4990948;28;20414;-48
2022/11/08 02:25:11;;;;;;;5.10;1.90;;;9.40;99.90;;;;;;4986642;28;20441;-50
2022/11/08 02:30:59;;;;;;;4.00;2.45;;;9.40;99.90;;;;;;4999808;28;20513;-53
2022/11/08 02:33:26;;;;;;;3.70;1.70;;;9.40;99.90;;;;;;4991160;28;20031;-52
2022/11/08 02:35:54;;;;;;;5.25;1.80;;;9.50;99.90;;;;;;4992809;28;20034;-50
2022/11/08 02:38:21;;;;;;;5.03;1.50;;;9.50;99.90;;;;;;5006542;28;20042;-52
2022/11/08 02:40:49;;;;;;;3.65;1.20;;;9.60;99.90;;;;;;5002105;28;20037;-55
2022/11/08 02:43:14;;;;;;;3.28;1.55;;;9.70;99.90;;;;;;4990207;28;20046;-52
2022/11/08 02:45:40;;;;;;;2.45;1.50;;;9.80;99.90;;;;;;4994462;28;20034;-55
2022/11/08 02:48:06;;;;;;;3.38;1.73;;;9.80;99.90;;;;;;5008979;28;20236;-52
2022/11/08 02:50:31;;;;;;;3.45;1.50;;;9.90;99.90;;;;;;4988792;28;20411;-51
2022/11/08 02:52:57;;;;;;;2.22;1.25;;;9.90;99.90;;;;;;5008963;28;20112;-52
2022/11/08 02:55:22;;;;;;;3.63;1.55;;;9.90;99.90;;;;;;4998943;28;20496;-53
2022/11/08 02:57:48;;;;;;;4.03;1.23;;;9.90;99.90;;;;;;4990504;28;20041;-51
2022/11/08 03:00:13;;;;;;;5.72;1.85;;;9.90;99.90;;;;;;5006686;28;20053;-50
2022/11/08 03:02:39;;;;;;;4.78;1.52;;;9.90;99.90;;;;;;4990300;28;20030;-52
2022/11/08 03:05:05;;;;;;;2.95;1.42;;;9.90;99.90;;;;;;5005960;28;20516;-50
2022/11/08 03:07:30;;;;;;;2.78;1.50;;;9.90;99.90;;;;;;4990139;28;20031;-52
2022/11/08 03:09:56;;;;;;;3.17;1.80;;;9.90;99.90;;;;;;5006603;28;20132;-49
2022/11/08 03:12:21;;;;;;;3.85;1.73;;;9.90;99.90;;;;;;5009286;28;20061;-51
2022/11/08 03:14:47;;;;;;;3.33;1.40;;;9.80;99.90;;;;;;4993762;28;20026;-50
2022/11/08 03:17:12;;;;;;;4.78;1.60;;;9.80;99.90;;;;;;5009419;28;20028;-51
2022/11/08 03:19:38;;;;;;;3.80;1.50;;;9.80;99.90;;;;;;4992508;28;20577;-51
2022/11/08 03:22:03;;;;;;;4.28;1.75;;;9.80;99.90;;;;;;5009372;28;20022;-51
2022/11/08 03:24:29;;;;;;;2.30;1.48;;;9.70;99.90;;;;;;4988037;28;20121;-53
2022/11/08 03:26:54;;;;;;;4.85;1.60;;;9.70;99.90;;;;;;4990505;28;20059;-54
2022/11/08 03:29:20;;;;;;;5.60;1.40;;;9.70;99.90;;;;;;4996138;28;20042;-51
2022/11/08 03:31:45;;;;;;;2.83;1.27;;;9.60;99.90;;;;;;5008114;28;20493;-51
2022/11/08 03:34:11;;;;;;;4.90;1.70;;;9.60;99.90;;;;;;4997377;28;20037;-50
2022/11/08 03:36:36;;;;;;;3.63;1.60;;;9.50;99.90;;;;;;4986294;28;20026;-50
2022/11/08 03:39:02;;;;;;;5.40;1.75;;;9.40;99.90;;;;;;4987829;28;20046;-53
2022/11/08 03:44:49;;;;;;;3.35;1.38;;;9.40;99.90;;;;;;5001826;28;20037;-54
2022/11/08 03:47:15;;;;;;;4.97;1.70;;;9.30;99.90;;;;;;4989988;28;20272;-52
2022/11/08 03:49:40;;;;;;;4.07;1.50;;;9.30;99.90;;;;;;4989804;28;20029;-51
2022/11/08 03:52:06;;;;;;;5.22;1.80;;;9.20;99.90;;;;;;5007943;28;20061;-52
2022/11/08 03:54:31;;;;;;;5.60;1.85;;;9.20;99.90;;;;;;4988017;28;20049;-54
2022/11/08 03:56:57;;;;;;;3.85;1.70;;;9.20;99.90;;;;;;5007990;28;20030;-53
2022/11/08 03:59:22;;;;;;;3.72;1.42;;;9.10;99.90;;;;;;4987923;28;20030;-52
2022/11/08 04:01:47;;;;;;;4.35;1.52;;;9.10;99.90;;;;;;5008202;28;20124;-50
2022/11/08 04:04:13;;;;;;;5.45;1.50;;;9.10;99.90;;;;;;4987642;28;20118;-48
2022/11/08 04:06:38;;;;;;;4.93;1.65;;;9.00;99.90;;;;;;5008087;28;20486;-51
2022/11/08 04:09:04;;;;;;;3.15;1.38;;;9.00;99.90;;;;;;4987827;28;20114;-51
2022/11/08 04:16:57;;;;;;;4.03;1.38;;;8.90;99.90;;;;;;4970733;28;20038;-48
2022/11/08 04:22:09;;;;;;;5.25;1.90;;;8.80;99.90;;;;;;4973774;28;20096;-51
2022/11/08 04:24:35;;;;;;;4.28;1.63;;;8.80;99.90;;;;;;4995160;28;20053;-50
2022/11/08 04:27:01;;;;;;;5.75;1.60;;;8.80;99.90;;;;;;4995803;28;20458;-52
2022/11/08 04:29:27;;;;;;;3.65;1.45;;;8.70;99.90;;;;;;4995907;28;20550;-54
2022/11/08 04:31:52;;;;;;;7.05;1.75;;;8.60;99.90;;;;;;5011598;28;20028;-54
2022/11/08 04:34:18;;;;;;;6.00;1.20;;;8.60;99.90;;;;;;4991544;28;20053;-53
2022/11/08 04:36:43;;;;;;;7.80;1.90;;;8.50;99.90;;;;;;4991149;28;20038;-55
2022/11/08 04:39:09;;;;;;;5.47;2.17;;;8.50;99.90;;;;;;5002009;28;20050;-57
2022/11/08 04:41:34;;;;;;;3.95;1.73;;;8.40;99.90;;;;;;4992009;28;20043;-56
2022/11/08 04:44:00;;;;;;;4.72;1.70;;;8.30;99.90;;;;;;5011314;28;20413;-55
2022/11/08 04:46:27;;;;;;;4.35;1.70;;;8.30;99.90;;;;;;4991301;28;20158;-51
2022/11/08 04:48:55;;;;;;;2.80;1.67;;;8.20;99.90;;;;;;5011547;28;20109;-55
2022/11/08 04:51:25;;;;;;;5.38;1.80;;;8.20;99.90;;;;;;4990795;28;20040;-55
2022/11/08 04:53:51;;;;;;;5.47;2.00;;;8.10;99.90;;;;;;5011979;28;20095;-55
2022/11/08 04:56:18;;;;;;;4.90;1.73;;;8.00;99.90;;;;;;4991200;28;20442;-50
2022/11/08 04:58:46;;;;;;;5.65;2.90;;;8.00;99.90;;;;;;5027064;28;20250;-52
2022/11/08 05:01:15;;;;;;;7.25;2.00;;;7.90;99.90;;;;;;4989296;28;20061;-55
2022/11/08 05:03:41;;;;;;;8.02;2.30;;;7.90;99.90;;;;;;5011277;28;20127;-55
2022/11/08 05:06:10;;;;;;;4.63;1.85;;;7.80;99.90;;;;;;4990867;28;20569;-53
2022/11/08 05:08:36;;;;;;;5.20;2.67;;;7.80;99.90;;;;;;5011397;28;20030;-54
2022/11/08 05:11:04;;;;;;;5.30;2.13;;;7.70;99.90;;;;;;4990782;28;20057;-55
2022/11/08 05:13:30;;;;;;;5.05;2.30;;;7.70;99.90;;;;;;5011095;28;20026;-56
2022/11/08 05:16:09;;;;;;;11.00;2.40;;;7.70;99.90;;;;;;4990370;28;20042;-56
2022/11/08 05:18:34;;;;;;;7.32;2.20;;;7.60;99.90;;;;;;4972485;28;20042;-55
2022/11/08 05:23:47;;;;;;;3.55;2.45;;;7.60;99.90;;;;;;4972384;28;20104;-54
2022/11/08 05:26:13;;;;;;;4.53;2.20;;;7.60;99.90;;;;;;4995116;28;20122;-53
2022/11/08 05:28:42;;;;;;;5.65;1.83;;;7.50;99.90;;;;;;5005060;28;20104;-55
2022/11/08 05:31:08;;;;;;;5.32;2.17;;;7.50;99.90;;;;;;4989958;28;20026;-56
2022/11/08 05:33:34;;;;;;;10.90;2.65;;;7.50;99.90;;;;;;5010552;28;20571;-55
2022/11/08 05:36:01;;;;;;;7.90;2.38;;;7.50;99.90;;;;;;4990214;28;20030;-59
2022/11/08 05:38:28;;;;;;;9.10;2.60;;;7.50;99.90;;;;;;5006942;28;20062;-55
2022/11/08 05:40:54;;;;;;;6.03;2.72;;;7.40;99.90;;;;;;5001546;28;20034;-54
2022/11/08 05:43:19;;;;;;;5.15;2.22;;;7.40;99.90;;;;;;4991887;28;20112;-56
2022/11/08 05:45:45;;;;;;;4.47;2.53;;;7.40;99.90;;;;;;4997458;28;20045;-54
2022/11/08 05:48:10;;;;;;;6.40;2.53;;;7.30;99.90;;;;;;5008992;28;20116;-53
2022/11/08 05:50:36;;;;;;;6.30;2.60;;;7.30;99.90;;;;;;4999567;28;20038;-54
2022/11/08 05:53:02;;;;;;;10.80;2.70;;;7.30;99.90;;;;;;4991639;28;20026;-56
2022/11/08 05:55:27;;;;;;;4.28;2.33;;;7.20;99.90;;;;;;5008265;28;20032;-55
2022/11/08 05:57:53;;;;;;;4.93;2.45;;;7.20;99.90;;;;;;4998609;28;20088;-55
2022/11/08 06:00:19;;;;;;;5.53;2.47;;;7.30;99.90;;;;;;5007345;28;20041;-57
2022/11/08 06:02:44;;;;;;;6.97;2.60;;;7.20;99.90;;;;;;5010669;28;20482;-55
2022/11/08 06:05:10;;;;;;;6.90;2.55;;;7.20;99.90;;;;;;4995682;28;20113;-55
2022/11/08 06:07:36;;;;;;;6.15;2.60;;;7.30;99.90;;;;;;5010311;28;20032;-54
2022/11/08 06:10:03;;;;;;;4.97;2.88;;;7.30;99.90;;;;;;4985705;28;20030;-54
2022/11/08 06:12:28;;;;;;;5.43;2.35;;;7.20;99.90;;;;;;4988517;28;20050;-56
2022/11/08 06:14:53;;;;;;;7.20;2.80;;;7.30;99.90;;;;;;4989833;28;20468;-57
2022/11/08 06:17:19;;;;;;;6.63;3.08;;;7.30;99.90;;;;;;4989560;28;20028;-55
2022/11/08 06:19:45;;;;;;;6.25;2.85;;;7.30;99.90;;;;;;4990463;28;20061;-57
2022/11/08 06:22:10;;;;;;;11.32;3.35;;;7.30;99.90;;;;;;5008744;28;20433;-58
2022/11/08 06:24:36;;;;;;;5.07;2.50;;;7.30;99.90;;;;;;4989612;28;20088;-58
2022/11/08 06:27:01;;;;;;;5.78;2.88;;;7.30;99.90;;;;;;4987731;28;20505;-58
2022/11/08 06:29:27;;;;;;;7.15;3.25;;;7.20;99.90;;;;;;4990854;28;20062;-56
2022/11/08 06:31:52;;;;;;;6.78;3.13;;;7.20;99.90;;;;;;4993580;28;20073;-57
2022/11/08 06:34:18;;;;;;;6.80;3.25;;;7.20;99.90;;;;;;5009263;28;20442;-56
2022/11/08 06:36:44;;;;;;;8.38;2.67;;;7.20;99.90;;;;;;4989221;28;20088;-56
2022/11/08 06:39:09;;;;;;;7.10;3.20;;;7.20;99.90;;;;;;4999351;28;20050;-56
2022/11/08 06:41:35;;;;;;;12.68;4.28;;;7.30;99.90;;;;;;4988207;28;20073;-55
2022/11/08 06:44:00;;;;;;;4.85;3.55;;;7.30;99.90;;;;;;5008799;28;20038;-54
2022/11/08 06:46:26;;;;;;;8.90;3.67;;;7.30;99.90;;;;;;4988704;28;20129;-56
2022/11/08 06:48:51;;;;;;;6.32;2.92;;;7.30;99.90;;;;;;5008887;28;20037;-56
2022/11/08 06:51:17;;;;;;;7.82;2.88;;;7.30;99.90;;;;;;4988547;28;20109;-54
2022/11/08 06:53:43;;;;;;;13.77;3.80;;;7.30;99.90;;;;;;5008768;28;20429;-56
2022/11/08 06:56:09;;;;;;;9.95;3.72;;;7.30;99.90;;;;;;4988591;28;20494;-54
2022/11/08 06:58:34;;;;;;;5.50;2.60;;;7.40;99.90;;;;;;5008542;28;20081;-56
2022/11/08 07:01:04;;;;;;;8.45;3.38;;;7.40;99.90;;;;;;4988241;28;20181;-56
2022/11/08 07:03:30;;;;;;;3.78;3.13;;;7.40;99.90;;;;;;4992928;28;20030;-57
2022/11/08 07:05:56;;;;;;;7.45;3.38;;;7.50;99.90;;;;;;5008672;28;20389;-57
2022/11/08 07:08:21;;;;;;;7.20;3.30;;;7.50;99.90;;;;;;4988661;28;20034;-54
2022/11/08 07:10:47;;;;;;;3.80;2.45;;;7.50;99.90;;;;;;5008634;28;20383;-55
2022/11/08 07:13:13;;;;;;;5.63;2.72;;;7.50;99.90;;;;;;4988433;28;20037;-55
2022/11/08 07:15:40;;;;;;;6.28;3.00;;;7.50;99.90;;;;;;5008810;28;20095;-54
2022/11/08 07:18:08;;;;;;;6.03;3.25;;;7.60;99.90;;;;;;4998667;28;20125;-58
2022/11/08 07:20:34;;;;;;;6.93;3.17;;;7.60;99.90;;;;;;4989898;28;20038;-57
2022/11/08 07:22:59;;;;;;;9.73;3.65;;;7.70;99.90;;;;;;5006365;28;20040;-56
2022/11/08 07:25:27;;;;;;;9.70;3.55;;;7.70;99.90;;;;;;4985212;28;20030;-54
2022/11/08 07:27:57;;;;;;;6.72;3.20;;;7.80;99.90;;;;;;4987276;28;20026;-53
2022/11/08 07:30:23;;;;;;;5.43;2.90;;;7.80;99.90;;;;;;4986997;28;20022;-56
2022/11/08 07:32:49;;;;;;;6.93;3.15;;;7.90;99.90;;;;;;5007478;28;20037;-56
2022/11/08 07:35:14;;;;;;;5.35;3.60;;;8.00;99.90;;;;;;4991120;28;20046;-57
2022/11/08 07:37:40;;;;;;;5.88;3.00;;;8.00;99.90;;;;;;4988409;28;20018;-56
2022/11/08 07:40:06;;;;;;;5.82;2.67;;;8.10;99.90;;;;;;4991860;28;20493;-57
2022/11/08 07:42:36;;;;;;;4.43;3.10;;;8.20;99.90;;;;;;5008543;28;20030;-57
2022/11/08 07:45:02;;;;;;;7.07;3.20;;;8.30;99.90;;;;;;4990519;28;20556;-57
2022/11/08 07:47:27;;;;;;;13.40;3.22;;;8.40;99.90;;;;;;5008158;28;20033;-57
2022/11/08 07:49:53;;;;;;;5.50;2.72;;;8.50;99.90;;;;;;4990316;28;20053;-56
2022/11/08 07:52:18;;;;;;;9.38;2.50;;;8.60;99.90;;;;;;5007383;28;20025;-57
2022/11/08 07:54:43;;;;;;;5.65;3.08;;;8.80;99.90;;;;;;4989205;28;21199;-57
2022/11/08 07:57:09;;;;;;;4.97;2.40;;;9.00;99.90;;;;;;5007789;28;20023;-57
2022/11/08 07:59:35;;;;;;;5.88;2.60;;;9.20;99.90;;;;;;4989290;28;20033;-58
2022/11/08 08:02:00;;;;;;;4.72;2.40;;;9.40;99.90;;;;;;5008232;28;20390;-58
2022/11/08 08:04:28;;;;;;;4.85;2.85;;;9.70;99.90;;;;;;4989504;28;20116;-58
2022/11/08 08:06:53;;;;;;;6.10;2.28;;;9.90;99.90;;;;;;4999182;28;20049;-58
2022/11/08 08:09:19;;;;;;;10.05;2.92;;;10.20;99.90;;;;;;5020404;28;20027;-58
2022/11/08 08:11:44;;;;;;;4.47;2.20;;;10.50;99.90;;;;;;5021490;28;20033;-58
2022/11/08 08:14:10;;;;;;;4.63;2.33;;;10.80;99.90;;;;;;5008593;28;20022;-58
2022/11/08 08:16:36;;;;;;;7.80;2.92;;;11.10;99.90;;;;;;4992400;28;20038;-62
2022/11/08 08:19:02;;;;;;;3.53;2.08;;;11.40;99.90;;;;;;5008348;28;20048;-58
2022/11/08 08:21:27;;;;;;;6.18;2.60;;;11.70;99.90;;;;;;4991113;28;20029;-58
2022/11/08 08:23:53;;;;;;;4.43;2.45;;;11.90;99.90;;;;;;5008435;28;20014;-58
2022/11/08 08:26:18;;;;;;;5.28;1.88;;;12.10;99.90;;;;;;4986772;28;20034;-53
2022/11/08 08:28:44;;;;;;;5.63;2.47;;;12.30;99.90;;;;;;5008443;28;20062;-54
2022/11/08 08:31:09;;;;;;;6.35;2.17;;;12.50;99.90;;;;;;4988397;28;20026;-51
2022/11/08 08:33:36;;;;;;;6.28;1.98;;;12.70;99.90;;;;;;5008495;28;20034;-53
2022/11/08 08:36:02;;;;;;;7.55;1.80;;;12.80;99.90;;;;;;4987168;28;20077;-55
2022/11/08 08:38:29;;;;;;;4.78;2.00;;;13.00;99.90;;;;;;5004583;28;20538;-53
2022/11/08 08:40:55;;;;;;;4.07;1.80;;;13.20;99.90;;;;;;4988774;28;20034;-56
2022/11/08 08:43:20;;;;;;;6.57;2.55;;;13.30;99.90;;;;;;5005549;28;20030;-50
2022/11/08 08:45:46;;;;;;;6.53;1.90;;;13.50;99.90;;;;;;4989186;28;20513;-53
2022/11/08 08:48:11;;;;;;;7.50;2.33;;;13.60;99.90;;;;;;4987840;28;20462;-56
2022/11/08 08:50:37;;;;;;;7.60;2.13;;;13.70;99.90;;;;;;5007451;28;20440;-54
2022/11/08 08:53:04;;;;;;;7.05;2.25;;;13.80;99.90;;;;;;4987471;28;20030;-56
2022/11/08 08:55:30;;;;;;;3.17;1.67;;;14.00;99.90;;;;;;5007479;28;20057;-55
2022/11/08 08:57:56;;;;;;;3.17;1.60;;;14.00;99.90;;;;;;4987136;28;20534;-53
2022/11/08 09:00:22;;;;;;;6.28;2.22;;;14.10;99.90;;;;;;5007200;28;20033;-55
2022/11/08 09:02:48;;;;;;;5.82;2.42;;;14.30;99.90;;;;;;4985977;28;20022;-53
2022/11/08 09:05:14;;;;;;;4.75;1.92;;;14.40;99.90;;;;;;5010295;28;20034;-56
2022/11/08 09:07:40;;;;;;;3.55;1.70;;;14.50;99.90;;;;;;4990426;28;20097;-54
2022/11/08 09:10:08;;;;;;;4.22;1.73;;;14.60;99.90;;;;;;5010895;28;20084;-53
2022/11/08 09:12:34;;;;;;;5.53;1.83;;;14.70;99.90;;;;;;4990108;28;20022;-53
2022/11/08 09:15:00;;;;;;;6.10;1.98;;;14.70;99.90;;;;;;5010792;28;20109;-54
2022/11/08 09:17:26;;;;;;;4.28;2.60;;;14.70;99.90;;;;;;4990493;28;20035;-52
2022/11/08 09:19:52;;;;;;;4.82;1.85;;;14.70;99.90;;;;;;5010690;28;20065;-53
2022/11/08 09:22:17;;;;;;;6.13;2.10;;;14.70;99.90;;;;;;5000807;28;20061;-54
2022/11/08 09:24:43;;;;;;;4.03;1.80;;;14.70;99.90;;;;;;4990746;28;20140;-54
2022/11/08 09:27:08;;;;;;;2.97;1.90;;;14.70;99.90;;;;;;5002419;28;20494;-51
2022/11/08 09:29:34;;;;;;;2.53;1.63;;;14.70;99.90;;;;;;4992252;28;20073;-51
2022/11/08 09:32:00;;;;;;;5.07;1.70;;;14.70;99.90;;;;;;5008234;28;20117;-55
2022/11/08 09:34:25;;;;;;;5.03;1.98;;;14.80;99.90;;;;;;4991978;28;20069;-53
2022/11/08 09:36:51;;;;;;;2.47;1.52;;;14.70;99.90;;;;;;5008229;28;20053;-54
2022/11/08 09:39:17;;;;;;;3.50;1.77;;;14.80;99.90;;;;;;5000693;28;20085;-52
2022/11/08 09:42:16;;;;;;;3.97;1.60;;;14.80;99.90;;;;;;5008306;28;20549;-52
2022/11/08 09:44:54;;;;;;;4.30;2.00;;;14.80;99.90;;;;;;4991709;28;20061;-56
2022/11/08 09:47:30;;;;;;;7.63;1.80;;;14.90;99.90;;;;;;4991369;28;20026;-53
2022/11/08 09:50:18;;;;;;;3.08;1.50;;;14.90;99.90;;;;;;4971857;28;20040;-53
2022/11/08 09:52:52;;;;;;;7.25;2.13;;;14.90;99.90;;;;;;4984086;28;20049;-55
2022/11/08 09:55:24;;;;;;;3.45;1.38;;;14.90;99.90;;;;;;4971874;28;20035;-55
2022/11/08 09:58:12;;;;;;;2.50;1.20;;;14.90;99.90;;;;;;4992360;28;20031;-51
2022/11/08 10:00:39;;;;;;;2.90;1.45;;;14.90;99.90;;;;;;4971406;28;20118;-49
2022/11/08 10:03:05;;;;;;;7.13;2.28;;;14.90;99.90;;;;;;4991054;28;20181;-52
2022/11/08 10:05:42;;;;;;;2.90;1.77;;;14.80;99.90;;;;;;5009663;28;20585;-52
2022/11/08 10:08:30;;;;;;;3.95;1.65;;;14.90;99.90;;;;;;4986577;28;20026;-52
2022/11/08 10:11:05;;;;;;;3.63;1.50;;;14.90;99.90;;;;;;4971611;28;20614;-53
2022/11/08 10:14:02;;;;;;;4.75;1.75;;;14.90;99.90;;;;;;4971500;28;20038;-51
2022/11/08 10:16:52;;;;;;;7.40;2.25;;;14.90;99.90;;;;;;4976989;28;20029;-54
2022/11/08 10:19:27;;;;;;;4.00;1.85;;;14.90;98.80;;;;;;5010232;28;20053;-49
2022/11/08 10:22:02;;;;;;;4.53;1.77;;;15.00;99.90;;;;;;4996436;28;20041;-49
2022/11/08 10:24:51;;;;;;;2.28;1.40;;;15.00;99.90;;;;;;4971191;28;20031;-52
2022/11/08 10:27:35;;;;;;;4.75;2.08;;;15.10;99.90;;;;;;4976311;28;20665;-53
2022/11/08 10:30:05;;;;;;;5.40;1.60;;;15.10;99.90;;;;;;4969917;28;20377;-54
2022/11/08 10:32:33;;;;;;;2.05;1.10;;;15.20;99.90;;;;;;4995630;28;20129;-50
2022/11/08 10:35:11;;;;;;;5.28;1.85;;;15.30;99.90;;;;;;5009552;28;20049;-49
2022/11/08 10:37:39;;;;;;;4.82;1.73;;;15.30;96.90;;;;;;4989075;28;20426;-53
2022/11/08 10:40:18;;;;;;;5.72;1.65;;;15.30;97.00;;;;;;5009259;28;20054;-50
2022/11/08 10:42:54;;;;;;;7.40;1.70;;;15.30;98.60;;;;;;4982944;28;20509;-50
2022/11/08 10:45:20;;;;;;;6.47;1.73;;;15.30;99.20;;;;;;4970766;28;20101;-51
2022/11/08 10:47:46;;;;;;;5.75;1.90;;;15.30;99.00;;;;;;4991026;28;20506;-49
2022/11/08 10:50:14;;;;;;;5.35;1.65;;;15.30;97.00;;;;;;5008731;28;20069;-53
2022/11/08 10:52:47;;;;;;;5.10;1.42;;;15.40;98.50;;;;;;4988452;28;20450;-50
2022/11/08 10:55:37;;;;;;;7.93;1.40;;;15.40;99.30;;;;;;4969359;28;20030;-50
2022/11/08 10:58:03;;;;;;;4.97;1.40;;;15.40;99.00;;;;;;4990829;28;20117;-51
2022/11/08 11:00:31;;;;;;;2.83;1.75;;;15.50;99.40;;;;;;5008979;28;20667;-53
2022/11/08 11:03:22;;;;;;;3.80;1.35;;;15.50;98.50;;;;;;4987900;28;20038;-49
2022/11/08 11:06:19;;;;;;;4.70;1.67;;;15.60;99.80;;;;;;4970243;28;20023;-51
2022/11/08 11:08:48;;;;;;;4.05;1.27;;;15.60;98.50;;;;;;4970442;28;20041;-52
2022/11/08 11:11:30;;;;;;;5.15;1.55;;;15.70;97.40;;;;;;5007495;28;20018;-51
2022/11/08 11:14:16;;;;;;;4.53;1.52;;;15.70;96.50;;;;;;5009106;28;20022;-50
2022/11/08 11:17:13;;;;;;;4.05;1.80;;;15.80;93.80;;;;;;4993822;28;20492;-51
2022/11/08 11:19:43;;;;;;;2.83;1.33;;;15.80;94.50;;;;;;4970370;28;20034;-50
2022/11/08 11:22:11;;;;;;;3.05;1.23;;;15.80;96.00;;;;;;4987067;28;20277;-52
2022/11/08 11:24:46;;;;;;;5.80;1.30;;;15.90;96.50;;;;;;4989772;28;20054;-53
2022/11/08 11:27:27;;;;;;;2.30;1.10;;;15.90;95.30;;;;;;4986672;28;20529;-49
2022/11/08 11:30:11;;;;;;;3.28;1.20;;;15.90;94.80;;;;;;4969856;28;20026;-52
2022/11/08 11:32:38;;;;;;;6.43;2.00;;;15.90;95.60;;;;;;4994479;28;20030;-50
2022/11/08 11:35:06;;;;;;;5.40;1.15;;;15.90;93.70;;;;;;4989271;28;20149;-51
2022/11/08 11:37:34;;;;;;;2.15;1.05;;;15.80;95.50;;;;;;4994605;28;20034;-50
2022/11/08 11:40:34;;;;;;;2.75;1.10;;;15.90;94.50;;;;;;5007948;28;20704;-49
2022/11/08 11:43:20;;;;;;;3.92;1.13;;;15.90;94.20;;;;;;4984094;28;20395;-54
2022/11/08 11:46:12;;;;;;;2.28;1.17;;;15.90;93.10;;;;;;4970040;28;20030;-49
2022/11/08 11:49:10;;;;;;;4.93;1.33;;;15.90;94.80;;;;;;4961809;28;20047;-53
2022/11/08 11:51:36;;;;;;;2.40;1.40;;;15.90;93.40;;;;;;4972418;28;20105;-50
2022/11/08 11:54:05;;;;;;;5.20;1.50;;;15.90;92.30;;;;;;4989066;28;20061;-52
2022/11/08 11:56:55;;;;;;;2.78;1.13;;;15.90;92.90;;;;;;5006597;28;20097;-53
2022/11/08 11:59:30;;;;;;;5.55;1.48;;;15.90;92.60;;;;;;4989578;28;20035;-54
2022/11/08 12:02:20;;;;;;;3.22;1.23;;;16.00;93.40;;;;;;4982918;28;20042;-49
2022/11/08 12:05:05;;;;;;;4.90;1.60;;;16.00;93.10;;;;;;4989760;28;20449;-51
2022/11/08 12:07:32;;;;;;;5.78;1.85;;;16.00;92.70;;;;;;4992418;28;20116;-49
2022/11/08 12:10:40;;;;;;;3.63;1.08;;;16.00;92.10;;;;;;4989434;28;20033;-51
2022/11/08 12:13:35;;;;;;;4.53;1.45;;;16.00;90.50;;;;;;4984458;28;20541;-51
2022/11/08 12:16:28;;;;;;;4.22;1.20;;;16.00;89.10;;;;;;4967957;28;20022;-54
2022/11/08 12:19:15;;;;;;;5.00;1.20;;;15.90;91.40;;;;;;5008438;28;20018;-50
2022/11/08 12:22:07;;;;;;;4.03;1.58;;;15.90;91.20;;;;;;4987604;28;20038;-54
2022/11/08 12:24:52;;;;;;;1.70;1.38;;;15.90;92.00;;;;;;4968093;28;20053;-49
2022/11/08 12:27:36;;;;;;;2.22;1.23;;;15.90;90.60;;;;;;4992650;28;20394;-53
2022/11/08 12:30:11;;;;;;;7.35;1.67;;;15.90;90.40;;;;;;5005785;28;20033;-48
2022/11/08 12:33:04;;;;;;;1.73;1.20;;;16.00;88.00;;;;;;5008640;28;20018;-51
2022/11/08 12:35:39;;;;;;;2.92;1.20;;;16.00;89.20;;;;;;4982753;28;20053;-52
2022/11/08 12:38:30;;;;;;;2.97;1.48;;;16.10;89.70;;;;;;4971480;28;20026;-49
2022/11/08 12:41:15;;;;;;;1.42;1.05;;;16.10;87.80;;;;;;5010062;28;20046;-52
2022/11/08 12:44:10;;;;;;;5.50;1.30;;;16.10;86.70;;;;;;4973270;28;20415;-56
2022/11/08 12:46:58;;;;;;;3.33;1.25;;;16.20;84.00;;;;;;4988107;28;20038;-47
2022/11/08 12:49:35;;;;;;;1.48;1.10;;;16.20;88.10;;;;;;4972894;28;20031;-49
2022/11/08 12:52:38;;;;;;;2.67;0.98;;;16.10;88.60;;;;;;4973012;28;20049;-49
2022/11/08 12:55:21;;;;;;;3.33;1.20;;;16.10;90.00;;;;;;4979486;28;20030;-53
2022/11/08 12:57:47;;;;;;;4.63;1.27;;;16.10;89.60;;;;;;5011754;28;20028;-47
2022/11/08 13:00:17;;;;;;;2.30;1.00;;;16.10;90.10;;;;;;4996381;28;20037;-49
2022/11/08 13:02:56;;;;;;;5.03;1.45;;;16.10;90.40;;;;;;5012027;28;20417;-47
2022/11/08 13:05:32;;;;;;;6.30;1.60;;;16.10;90.40;;;;;;4984679;28;20540;-48
2022/11/08 13:08:29;;;;;;;2.47;1.20;;;16.10;86.70;;;;;;5012167;28;20026;-49
2022/11/08 13:11:01;;;;;;;3.55;1.17;;;16.20;84.30;;;;;;4992181;28;20077;-49
2022/11/08 13:13:50;;;;;;;2.10;1.00;;;16.10;85.80;;;;;;4972594;28;20035;-47
2022/11/08 13:16:19;;;;;;;3.25;1.00;;;16.10;85.90;;;;;;4981170;28;20104;-48
2022/11/08 13:18:49;;;;;;;4.00;1.25;;;16.10;87.30;;;;;;5008940;28;20037;-55
2022/11/08 13:21:27;;;;;;;3.78;1.08;;;16.20;86.90;;;;;;4992248;28;20046;-48
2022/11/08 13:24:14;;;;;;;3.10;1.58;;;16.20;84.10;;;;;;4997527;28;20422;-56
2022/11/08 13:26:43;;;;;;;4.22;1.48;;;16.30;84.10;;;;;;4978191;28;20398;-56
2022/11/08 13:29:12;;;;;;;2.50;1.40;;;16.30;86.00;;;;;;5009396;28;20249;-53
2022/11/08 13:31:37;;;;;;;4.55;1.50;;;16.30;85.00;;;;;;4991828;28;20541;-57
2022/11/08 13:34:26;;;;;;;7.28;2.75;;;16.30;84.60;;;;;;4995897;28;20026;-54
2022/11/08 13:37:15;;;;;;;6.40;2.13;;;16.30;82.50;;;;;;4972118;28;20031;-50
2022/11/08 13:40:01;;;;;;;4.70;1.48;;;16.20;82.50;;;;;;4972385;28;20046;-50
2022/11/08 13:42:35;;;;;;;7.82;3.63;;;16.10;84.50;;;;;;4970456;28;20070;-48